sensor_id;sensor_type;location;lat;lon;timestamp;P1;durP1;ratioP1;P2;durP2;ratioP2
11052;SDS011;55230;42.602;23.470;2022-10-15T00:01:19;7.07;;;5.90;;
11052;SDS011;55230;42.602;23.470;2022-10-15T00:03:46;8.43;;;6.60;;
11052;SDS011;55230;42.602;23.470;2022-10-15T00:06:13;8.47;;;7.03;;
11052;SDS011;55230;42.602;23.470;2022-10-15T00:08:43;7.30;;;6.43;;
11052;SDS011;55230;42.602;23.470;2022-10-15T00:11:12;7.57;;;6.57;;
11052;SDS011;55230;42.602;23.470;2022-10-15T00:13:40;7.63;;;6.83;;
11052;SDS011;55230;42.602;23.470;2022-10-15T00:16:07;9.23;;;6.67;;
11052;SDS011;55230;42.602;23.470;2022-10-15T00:18:36;8.00;;;6.57;;
11052;SDS011;55230;42.602;23.470;2022-10-15T00:21:04;8.00;;;6.40;;
11052;SDS011;55230;42.602;23.470;2022-10-15T00:23:32;8.40;;;6.60;;
11052;SDS011;55230;42.602;23.470;2022-10-15T00:26:01;7.87;;;6.10;;
11052;SDS011;55230;42.602;23.470;2022-10-15T00:28:29;7.80;;;6.60;;
11052;SDS011;55230;42.602;23.470;2022-10-15T00:31:00;9.23;;;6.73;;
11052;SDS011;55230;42.602;23.470;2022-10-15T00:33:27;9.13;;;6.40;;
11052;SDS011;55230;42.602;23.470;2022-10-15T00:35:58;8.50;;;6.37;;
11052;SDS011;55230;42.602;23.470;2022-10-15T00:38:26;8.90;;;7.43;;
11052;SDS011;55230;42.602;23.470;2022-10-15T00:40:53;8.27;;;7.00;;
11052;SDS011;55230;42.602;23.470;2022-10-15T00:46:13;8.20;;;7.00;;
11052;SDS011;55230;42.602;23.470;2022-10-15T00:48:42;7.60;;;6.80;;
11052;SDS011;55230;42.602;23.470;2022-10-15T00:51:11;10.47;;;7.77;;
11052;SDS011;55230;42.602;23.470;2022-10-15T00:53:39;9.47;;;7.67;;
11052;SDS011;55230;42.602;23.470;2022-10-15T00:56:06;8.90;;;7.90;;
11052;SDS011;55230;42.602;23.470;2022-10-15T00:58:33;10.43;;;7.50;;
11052;SDS011;55230;42.602;23.470;2022-10-15T01:01:02;8.53;;;7.63;;
11052;SDS011;55230;42.602;23.470;2022-10-15T01:03:29;9.07;;;7.70;;
11052;SDS011;55230;42.602;23.470;2022-10-15T01:05:56;10.23;;;8.07;;
11052;SDS011;55230;42.602;23.470;2022-10-15T01:08:23;8.17;;;7.37;;
11052;SDS011;55230;42.602;23.470;2022-10-15T01:10:50;8.47;;;7.50;;
11052;SDS011;55230;42.602;23.470;2022-10-15T01:13:31;10.10;;;7.57;;
11052;SDS011;55230;42.602;23.470;2022-10-15T01:16:04;7.97;;;7.17;;
11052;SDS011;55230;42.602;23.470;2022-10-15T01:18:37;9.07;;;8.17;;
11052;SDS011;55230;42.602;23.470;2022-10-15T01:21:08;9.03;;;7.47;;
11052;SDS011;55230;42.602;23.470;2022-10-15T01:23:49;11.17;;;7.70;;
11052;SDS011;55230;42.602;23.470;2022-10-15T01:26:57;9.87;;;7.60;;
11052;SDS011;55230;42.602;23.470;2022-10-15T01:32:40;9.13;;;7.57;;
11052;SDS011;55230;42.602;23.470;2022-10-15T01:35:14;11.67;;;8.17;;
11052;SDS011;55230;42.602;23.470;2022-10-15T01:37:49;9.97;;;7.17;;
11052;SDS011;55230;42.602;23.470;2022-10-15T01:40:22;8.77;;;7.60;;
11052;SDS011;55230;42.602;23.470;2022-10-15T01:42:56;8.97;;;7.00;;
11052;SDS011;55230;42.602;23.470;2022-10-15T01:45:26;7.67;;;6.90;;
11052;SDS011;55230;42.602;23.470;2022-10-15T01:47:57;8.57;;;7.20;;
11052;SDS011;55230;42.602;23.470;2022-10-15T01:50:28;8.27;;;6.57;;
11052;SDS011;55230;42.602;23.470;2022-10-15T01:52:57;9.47;;;7.60;;
11052;SDS011;55230;42.602;23.470;2022-10-15T01:55:25;11.27;;;7.40;;
11052;SDS011;55230;42.602;23.470;2022-10-15T01:57:53;9.07;;;7.43;;
11052;SDS011;55230;42.602;23.470;2022-10-15T02:00:22;8.50;;;7.60;;
11052;SDS011;55230;42.602;23.470;2022-10-15T02:02:51;7.10;;;6.40;;
11052;SDS011;55230;42.602;23.470;2022-10-15T02:05:18;9.93;;;7.07;;
11052;SDS011;55230;42.602;23.470;2022-10-15T02:07:52;11.93;;;7.27;;
11052;SDS011;55230;42.602;23.470;2022-10-15T02:10:25;7.87;;;6.73;;
11052;SDS011;55230;42.602;23.470;2022-10-15T02:13:01;8.77;;;7.07;;
11052;SDS011;55230;42.602;23.470;2022-10-15T02:15:39;8.17;;;6.70;;
11052;SDS011;55230;42.602;23.470;2022-10-15T02:18:14;7.00;;;6.00;;
11052;SDS011;55230;42.602;23.470;2022-10-15T02:20:47;7.70;;;6.90;;
11052;SDS011;55230;42.602;23.470;2022-10-15T02:23:21;9.93;;;6.63;;
11052;SDS011;55230;42.602;23.470;2022-10-15T02:25:52;6.33;;;5.73;;
11052;SDS011;55230;42.602;23.470;2022-10-15T02:28:20;9.33;;;6.70;;
11052;SDS011;55230;42.602;23.470;2022-10-15T02:30:52;9.30;;;7.00;;
11052;SDS011;55230;42.602;23.470;2022-10-15T02:33:24;10.37;;;7.10;;
11052;SDS011;55230;42.602;23.470;2022-10-15T02:35:51;9.10;;;7.43;;
11052;SDS011;55230;42.602;23.470;2022-10-15T02:38:20;8.17;;;7.37;;
11052;SDS011;55230;42.602;23.470;2022-10-15T02:40:50;8.90;;;6.87;;
11052;SDS011;55230;42.602;23.470;2022-10-15T02:43:18;8.60;;;7.00;;
11052;SDS011;55230;42.602;23.470;2022-10-15T02:45:46;9.77;;;7.27;;
11052;SDS011;55230;42.602;23.470;2022-10-15T02:48:13;10.47;;;6.80;;
11052;SDS011;55230;42.602;23.470;2022-10-15T02:50:42;8.40;;;7.50;;
11052;SDS011;55230;42.602;23.470;2022-10-15T02:53:09;8.43;;;7.40;;
11052;SDS011;55230;42.602;23.470;2022-10-15T02:55:35;11.33;;;7.20;;
11052;SDS011;55230;42.602;23.470;2022-10-15T02:58:02;9.40;;;6.67;;
11052;SDS011;55230;42.602;23.470;2022-10-15T03:00:29;8.83;;;6.87;;
11052;SDS011;55230;42.602;23.470;2022-10-15T03:02:56;10.13;;;6.73;;
11052;SDS011;55230;42.602;23.470;2022-10-15T03:05:23;7.90;;;7.10;;
11052;SDS011;55230;42.602;23.470;2022-10-15T03:07:51;10.80;;;8.53;;
11052;SDS011;55230;42.602;23.470;2022-10-15T03:10:18;8.00;;;7.20;;
11052;SDS011;55230;42.602;23.470;2022-10-15T03:12:45;7.97;;;7.17;;
11052;SDS011;55230;42.602;23.470;2022-10-15T03:15:11;9.20;;;6.93;;
11052;SDS011;55230;42.602;23.470;2022-10-15T03:17:38;8.70;;;7.73;;
11052;SDS011;55230;42.602;23.470;2022-10-15T03:20:05;7.63;;;6.83;;
11052;SDS011;55230;42.602;23.470;2022-10-15T03:22:32;9.77;;;7.10;;
11052;SDS011;55230;42.602;23.470;2022-10-15T03:25:00;8.83;;;6.90;;
11052;SDS011;55230;42.602;23.470;2022-10-15T03:27:27;10.37;;;7.67;;
11052;SDS011;55230;42.602;23.470;2022-10-15T03:29:54;18.67;;;12.13;;
11052;SDS011;55230;42.602;23.470;2022-10-15T03:32:21;10.20;;;8.90;;
11052;SDS011;55230;42.602;23.470;2022-10-15T03:34:48;9.70;;;8.47;;
11052;SDS011;55230;42.602;23.470;2022-10-15T03:37:17;10.73;;;8.73;;
11052;SDS011;55230;42.602;23.470;2022-10-15T03:39:44;9.83;;;8.23;;
11052;SDS011;55230;42.602;23.470;2022-10-15T03:42:12;12.23;;;8.80;;
11052;SDS011;55230;42.602;23.470;2022-10-15T03:44:39;12.03;;;8.97;;
11052;SDS011;55230;42.602;23.470;2022-10-15T03:47:06;9.30;;;8.40;;
11052;SDS011;55230;42.602;23.470;2022-10-15T03:49:33;9.63;;;7.70;;
11052;SDS011;55230;42.602;23.470;2022-10-15T03:51:59;8.57;;;7.10;;
11052;SDS011;55230;42.602;23.470;2022-10-15T03:54:26;9.13;;;6.70;;
11052;SDS011;55230;42.602;23.470;2022-10-15T03:56:53;7.47;;;6.67;;
11052;SDS011;55230;42.602;23.470;2022-10-15T03:59:21;7.63;;;6.83;;
11052;SDS011;55230;42.602;23.470;2022-10-15T04:01:48;7.83;;;6.83;;
11052;SDS011;55230;42.602;23.470;2022-10-15T04:04:15;13.20;;;9.80;;
11052;SDS011;55230;42.602;23.470;2022-10-15T04:06:41;14.20;;;10.53;;
11052;SDS011;55230;42.602;23.470;2022-10-15T04:09:11;13.77;;;10.30;;
11052;SDS011;55230;42.602;23.470;2022-10-15T04:11:38;16.00;;;11.40;;
11052;SDS011;55230;42.602;23.470;2022-10-15T04:14:05;14.43;;;11.07;;
11052;SDS011;55230;42.602;23.470;2022-10-15T04:16:33;17.17;;;10.77;;
11052;SDS011;55230;42.602;23.470;2022-10-15T04:19:00;11.00;;;8.20;;
11052;SDS011;55230;42.602;23.470;2022-10-15T04:21:27;12.37;;;8.70;;
11052;SDS011;55230;42.602;23.470;2022-10-15T04:23:54;8.40;;;7.37;;
11052;SDS011;55230;42.602;23.470;2022-10-15T04:26:21;8.77;;;7.80;;
11052;SDS011;55230;42.602;23.470;2022-10-15T04:28:47;9.03;;;7.10;;
11052;SDS011;55230;42.602;23.470;2022-10-15T04:31:14;8.63;;;7.10;;
11052;SDS011;55230;42.602;23.470;2022-10-15T04:33:42;9.27;;;7.20;;
11052;SDS011;55230;42.602;23.470;2022-10-15T04:36:11;9.47;;;7.20;;
11052;SDS011;55230;42.602;23.470;2022-10-15T04:38:38;7.83;;;7.03;;
11052;SDS011;55230;42.602;23.470;2022-10-15T04:41:06;11.33;;;7.30;;
11052;SDS011;55230;42.602;23.470;2022-10-15T04:43:34;10.67;;;6.90;;
11052;SDS011;55230;42.602;23.470;2022-10-15T04:46:03;9.33;;;6.77;;
11052;SDS011;55230;42.602;23.470;2022-10-15T04:48:32;9.33;;;7.83;;
11052;SDS011;55230;42.602;23.470;2022-10-15T04:51:05;8.73;;;7.43;;
11052;SDS011;55230;42.602;23.470;2022-10-15T04:53:33;7.90;;;7.10;;
11052;SDS011;55230;42.602;23.470;2022-10-15T04:56:01;10.27;;;7.63;;
11052;SDS011;55230;42.602;23.470;2022-10-15T04:58:28;8.50;;;7.43;;
11052;SDS011;55230;42.602;23.470;2022-10-15T05:00:58;9.10;;;7.20;;
11052;SDS011;55230;42.602;23.470;2022-10-15T05:03:26;8.77;;;7.70;;
11052;SDS011;55230;42.602;23.470;2022-10-15T05:05:53;14.87;;;10.97;;
11052;SDS011;55230;42.602;23.470;2022-10-15T05:08:21;12.07;;;9.77;;
11052;SDS011;55230;42.602;23.470;2022-10-15T05:10:48;9.87;;;8.03;;
11052;SDS011;55230;42.602;23.470;2022-10-15T05:13:14;9.67;;;7.37;;
11052;SDS011;55230;42.602;23.470;2022-10-15T05:15:41;10.83;;;9.33;;
11052;SDS011;55230;42.602;23.470;2022-10-15T05:18:08;19.20;;;14.67;;
11052;SDS011;55230;42.602;23.470;2022-10-15T05:20:34;14.73;;;11.43;;
11052;SDS011;55230;42.602;23.470;2022-10-15T05:23:01;16.60;;;13.00;;
11052;SDS011;55230;42.602;23.470;2022-10-15T05:25:31;9.17;;;7.90;;
11052;SDS011;55230;42.602;23.470;2022-10-15T05:27:58;11.67;;;7.73;;
11052;SDS011;55230;42.602;23.470;2022-10-15T05:30:25;7.83;;;7.03;;
11052;SDS011;55230;42.602;23.470;2022-10-15T05:32:52;9.57;;;7.60;;
11052;SDS011;55230;42.602;23.470;2022-10-15T05:35:19;9.30;;;7.67;;
11052;SDS011;55230;42.602;23.470;2022-10-15T05:37:45;8.13;;;7.33;;
11052;SDS011;55230;42.602;23.470;2022-10-15T05:40:14;9.27;;;7.80;;
11052;SDS011;55230;42.602;23.470;2022-10-15T05:42:42;9.17;;;7.40;;
11052;SDS011;55230;42.602;23.470;2022-10-15T05:45:09;8.90;;;8.00;;
11052;SDS011;55230;42.602;23.470;2022-10-15T05:47:36;13.23;;;10.20;;
11052;SDS011;55230;42.602;23.470;2022-10-15T05:50:03;16.00;;;12.63;;
11052;SDS011;55230;42.602;23.470;2022-10-15T05:52:30;19.00;;;14.20;;
11052;SDS011;55230;42.602;23.470;2022-10-15T05:54:57;21.67;;;17.77;;
11052;SDS011;55230;42.602;23.470;2022-10-15T05:57:24;19.50;;;15.47;;
11052;SDS011;55230;42.602;23.470;2022-10-15T05:59:52;18.90;;;14.70;;
11052;SDS011;55230;42.602;23.470;2022-10-15T06:02:19;14.43;;;11.50;;
11052;SDS011;55230;42.602;23.470;2022-10-15T06:04:46;12.87;;;9.63;;
11052;SDS011;55230;42.602;23.470;2022-10-15T06:07:13;11.23;;;8.90;;
11052;SDS011;55230;42.602;23.470;2022-10-15T06:09:40;13.03;;;9.17;;
11052;SDS011;55230;42.602;23.470;2022-10-15T06:12:07;16.27;;;12.43;;
11052;SDS011;55230;42.602;23.470;2022-10-15T06:14:34;22.23;;;16.17;;
11052;SDS011;55230;42.602;23.470;2022-10-15T06:17:02;9.47;;;7.40;;
11052;SDS011;55230;42.602;23.470;2022-10-15T06:19:29;9.23;;;7.20;;
11052;SDS011;55230;42.602;23.470;2022-10-15T06:21:55;8.33;;;7.43;;
11052;SDS011;55230;42.602;23.470;2022-10-15T06:24:23;11.03;;;7.03;;
11052;SDS011;55230;42.602;23.470;2022-10-15T06:26:49;7.53;;;6.77;;
11052;SDS011;55230;42.602;23.470;2022-10-15T06:29:16;7.53;;;6.57;;
11052;SDS011;55230;42.602;23.470;2022-10-15T06:31:43;9.63;;;6.50;;
11052;SDS011;55230;42.602;23.470;2022-10-15T06:34:11;9.50;;;6.20;;
11052;SDS011;55230;42.602;23.470;2022-10-15T06:36:38;8.70;;;6.33;;
11052;SDS011;55230;42.602;23.470;2022-10-15T06:39:04;10.73;;;6.80;;
11052;SDS011;55230;42.602;23.470;2022-10-15T06:41:31;8.20;;;6.07;;
11052;SDS011;55230;42.602;23.470;2022-10-15T06:43:58;11.07;;;6.50;;
11052;SDS011;55230;42.602;23.470;2022-10-15T06:46:25;7.40;;;6.03;;
11052;SDS011;55230;42.602;23.470;2022-10-15T06:48:52;11.00;;;6.00;;
11052;SDS011;55230;42.602;23.470;2022-10-15T06:51:21;13.73;;;9.93;;
11052;SDS011;55230;42.602;23.470;2022-10-15T06:53:48;10.73;;;7.17;;
11052;SDS011;55230;42.602;23.470;2022-10-15T06:56:14;12.07;;;7.97;;
11052;SDS011;55230;42.602;23.470;2022-10-15T06:58:41;12.23;;;9.20;;
11052;SDS011;55230;42.602;23.470;2022-10-15T07:01:08;34.73;;;21.97;;
11052;SDS011;55230;42.602;23.470;2022-10-15T07:03:35;48.97;;;27.33;;
11052;SDS011;55230;42.602;23.470;2022-10-15T07:06:03;19.70;;;11.83;;
11052;SDS011;55230;42.602;23.470;2022-10-15T07:08:33;15.47;;;11.10;;
11052;SDS011;55230;42.602;23.470;2022-10-15T07:11:01;19.03;;;11.27;;
11052;SDS011;55230;42.602;23.470;2022-10-15T07:13:28;15.90;;;10.77;;
11052;SDS011;55230;42.602;23.470;2022-10-15T07:15:55;9.20;;;7.37;;
11052;SDS011;55230;42.602;23.470;2022-10-15T07:18:21;7.70;;;6.10;;
11052;SDS011;55230;42.602;23.470;2022-10-15T07:20:48;8.53;;;6.23;;
11052;SDS011;55230;42.602;23.470;2022-10-15T07:23:15;10.57;;;6.47;;
11052;SDS011;55230;42.602;23.470;2022-10-15T07:25:43;7.53;;;6.70;;
11052;SDS011;55230;42.602;23.470;2022-10-15T07:28:10;9.77;;;6.50;;
11052;SDS011;55230;42.602;23.470;2022-10-15T07:30:37;8.27;;;5.90;;
11052;SDS011;55230;42.602;23.470;2022-10-15T07:33:03;7.10;;;5.80;;
11052;SDS011;55230;42.602;23.470;2022-10-15T07:35:30;7.13;;;5.87;;
11052;SDS011;55230;42.602;23.470;2022-10-15T07:37:59;8.30;;;5.90;;
11052;SDS011;55230;42.602;23.470;2022-10-15T07:40:26;6.03;;;5.30;;
11052;SDS011;55230;42.602;23.470;2022-10-15T07:42:55;7.53;;;5.77;;
11052;SDS011;55230;42.602;23.470;2022-10-15T07:45:24;8.57;;;6.43;;
11052;SDS011;55230;42.602;23.470;2022-10-15T07:47:51;7.67;;;5.30;;
11052;SDS011;55230;42.602;23.470;2022-10-15T07:50:19;7.73;;;5.93;;
11052;SDS011;55230;42.602;23.470;2022-10-15T07:52:46;9.50;;;6.93;;
11052;SDS011;55230;42.602;23.470;2022-10-15T07:55:13;8.73;;;6.03;;
11052;SDS011;55230;42.602;23.470;2022-10-15T07:57:40;10.30;;;5.90;;
11052;SDS011;55230;42.602;23.470;2022-10-15T08:00:09;9.03;;;7.23;;
11052;SDS011;55230;42.602;23.470;2022-10-15T08:02:36;7.87;;;6.00;;
11052;SDS011;55230;42.602;23.470;2022-10-15T08:05:03;8.80;;;5.50;;
11052;SDS011;55230;42.602;23.470;2022-10-15T08:07:30;6.67;;;5.50;;
11052;SDS011;55230;42.602;23.470;2022-10-15T08:09:57;7.93;;;5.43;;
11052;SDS011;55230;42.602;23.470;2022-10-15T08:12:24;7.90;;;5.57;;
11052;SDS011;55230;42.602;23.470;2022-10-15T08:14:50;5.93;;;5.33;;
11052;SDS011;55230;42.602;23.470;2022-10-15T08:17:19;12.23;;;6.20;;
11052;SDS011;55230;42.602;23.470;2022-10-15T08:19:45;16.40;;;9.70;;
11052;SDS011;55230;42.602;23.470;2022-10-15T08:22:12;13.00;;;7.63;;
11052;SDS011;55230;42.602;23.470;2022-10-15T08:24:39;15.03;;;8.30;;
11052;SDS011;55230;42.602;23.470;2022-10-15T08:27:05;9.60;;;5.93;;
11052;SDS011;55230;42.602;23.470;2022-10-15T08:29:32;12.97;;;7.23;;
11052;SDS011;55230;42.602;23.470;2022-10-15T08:31:59;12.87;;;6.67;;
11052;SDS011;55230;42.602;23.470;2022-10-15T08:34:27;6.53;;;5.07;;
11052;SDS011;55230;42.602;23.470;2022-10-15T08:36:54;8.17;;;5.90;;
11052;SDS011;55230;42.602;23.470;2022-10-15T08:39:21;8.67;;;5.60;;
11052;SDS011;55230;42.602;23.470;2022-10-15T08:41:49;7.33;;;5.13;;
11052;SDS011;55230;42.602;23.470;2022-10-15T08:44:20;9.67;;;6.00;;
11052;SDS011;55230;42.602;23.470;2022-10-15T08:46:51;7.23;;;5.10;;
11052;SDS011;55230;42.602;23.470;2022-10-15T08:49:25;8.90;;;6.63;;
11052;SDS011;55230;42.602;23.470;2022-10-15T08:52:02;6.90;;;5.80;;
11052;SDS011;55230;42.602;23.470;2022-10-15T08:54:33;5.40;;;4.90;;
11052;SDS011;55230;42.602;23.470;2022-10-15T08:57:05;5.73;;;4.97;;
11052;SDS011;55230;42.602;23.470;2022-10-15T08:59:43;7.53;;;5.43;;
11052;SDS011;55230;42.602;23.470;2022-10-15T09:02:15;5.83;;;4.93;;
11052;SDS011;55230;42.602;23.470;2022-10-15T09:04:49;6.10;;;5.43;;
11052;SDS011;55230;42.602;23.470;2022-10-15T09:07:22;8.13;;;6.87;;
11052;SDS011;55230;42.602;23.470;2022-10-15T09:09:55;9.27;;;5.33;;
11052;SDS011;55230;42.602;23.470;2022-10-15T09:12:31;6.60;;;5.90;;
11052;SDS011;55230;42.602;23.470;2022-10-15T09:15:09;8.70;;;7.00;;
11052;SDS011;55230;42.602;23.470;2022-10-15T09:17:39;6.30;;;5.67;;
11052;SDS011;55230;42.602;23.470;2022-10-15T09:20:13;5.97;;;5.33;;
11052;SDS011;55230;42.602;23.470;2022-10-15T09:22:43;6.47;;;5.37;;
11052;SDS011;55230;42.602;23.470;2022-10-15T09:25:15;7.57;;;5.40;;
11052;SDS011;55230;42.602;23.470;2022-10-15T09:27:44;6.70;;;5.60;;
11052;SDS011;55230;42.602;23.470;2022-10-15T09:30:17;5.83;;;4.93;;
11052;SDS011;55230;42.602;23.470;2022-10-15T09:32:54;8.87;;;5.63;;
11052;SDS011;55230;42.602;23.470;2022-10-15T09:35:27;5.77;;;5.13;;
11052;SDS011;55230;42.602;23.470;2022-10-15T09:37:59;5.70;;;5.03;;
11052;SDS011;55230;42.602;23.470;2022-10-15T09:40:41;5.10;;;4.60;;
11052;SDS011;55230;42.602;23.470;2022-10-15T09:43:21;7.73;;;5.43;;
11052;SDS011;55230;42.602;23.470;2022-10-15T09:45:52;5.50;;;5.00;;
11052;SDS011;55230;42.602;23.470;2022-10-15T09:48:19;6.83;;;6.13;;
11052;SDS011;55230;42.602;23.470;2022-10-15T09:50:52;6.27;;;4.57;;
11052;SDS011;55230;42.602;23.470;2022-10-15T09:53:24;5.87;;;4.63;;
11052;SDS011;55230;42.602;23.470;2022-10-15T09:56:02;5.10;;;4.43;;
11052;SDS011;55230;42.602;23.470;2022-10-15T09:58:38;4.03;;;3.73;;
11052;SDS011;55230;42.602;23.470;2022-10-15T10:01:15;5.27;;;3.90;;
11052;SDS011;55230;42.602;23.470;2022-10-15T10:03:43;5.63;;;4.27;;
11052;SDS011;55230;42.602;23.470;2022-10-15T10:06:11;4.63;;;4.23;;
11052;SDS011;55230;42.602;23.470;2022-10-15T10:08:40;8.47;;;5.60;;
11052;SDS011;55230;42.602;23.470;2022-10-15T10:11:15;6.07;;;4.90;;
11052;SDS011;55230;42.602;23.470;2022-10-15T10:13:43;5.73;;;5.13;;
11052;SDS011;55230;42.602;23.470;2022-10-15T10:16:15;4.97;;;4.43;;
11052;SDS011;55230;42.602;23.470;2022-10-15T10:18:44;5.83;;;4.20;;
11052;SDS011;55230;42.602;23.470;2022-10-15T10:21:29;7.07;;;5.00;;
11052;SDS011;55230;42.602;23.470;2022-10-15T10:23:59;6.60;;;6.00;;
11052;SDS011;55230;42.602;23.470;2022-10-15T10:26:44;13.83;;;7.73;;
11052;SDS011;55230;42.602;23.470;2022-10-15T10:29:11;4.60;;;3.80;;
11052;SDS011;55230;42.602;23.470;2022-10-15T10:31:44;10.33;;;6.43;;
11052;SDS011;55230;42.602;23.470;2022-10-15T10:34:16;7.07;;;4.77;;
11052;SDS011;55230;42.602;23.470;2022-10-15T10:36:48;6.13;;;5.30;;
11052;SDS011;55230;42.602;23.470;2022-10-15T10:39:20;5.53;;;4.30;;
11052;SDS011;55230;42.602;23.470;2022-10-15T10:41:52;4.70;;;4.20;;
11052;SDS011;55230;42.602;23.470;2022-10-15T10:44:21;5.43;;;4.27;;
11052;SDS011;55230;42.602;23.470;2022-10-15T10:47:04;4.83;;;3.63;;
11052;SDS011;55230;42.602;23.470;2022-10-15T10:49:36;5.53;;;4.17;;
11052;SDS011;55230;42.602;23.470;2022-10-15T10:52:05;6.73;;;4.00;;
11052;SDS011;55230;42.602;23.470;2022-10-15T10:54:43;6.50;;;4.57;;
11052;SDS011;55230;42.602;23.470;2022-10-15T10:57:11;8.63;;;7.67;;
11052;SDS011;55230;42.602;23.470;2022-10-15T10:59:45;8.30;;;6.77;;
11052;SDS011;55230;42.602;23.470;2022-10-15T11:02:15;5.23;;;4.70;;
11052;SDS011;55230;42.602;23.470;2022-10-15T11:04:42;8.87;;;5.83;;
11052;SDS011;55230;42.602;23.470;2022-10-15T11:07:12;9.90;;;6.50;;
11052;SDS011;55230;42.602;23.470;2022-10-15T11:09:50;10.30;;;7.40;;
11052;SDS011;55230;42.602;23.470;2022-10-15T11:12:39;5.77;;;4.50;;
11052;SDS011;55230;42.602;23.470;2022-10-15T11:15:16;7.03;;;5.20;;
11052;SDS011;55230;42.602;23.470;2022-10-15T11:17:53;5.63;;;5.07;;
11052;SDS011;55230;42.602;23.470;2022-10-15T11:20:38;9.60;;;7.00;;
11052;SDS011;55230;42.602;23.470;2022-10-15T11:23:21;7.10;;;6.40;;
11052;SDS011;55230;42.602;23.470;2022-10-15T11:25:58;9.63;;;6.00;;
11052;SDS011;55230;42.602;23.470;2022-10-15T11:28:38;11.10;;;6.80;;
11052;SDS011;55230;42.602;23.470;2022-10-15T11:31:16;6.77;;;4.47;;
11052;SDS011;55230;42.602;23.470;2022-10-15T11:33:55;6.40;;;4.13;;
11052;SDS011;55230;42.602;23.470;2022-10-15T11:36:35;9.93;;;7.40;;
11052;SDS011;55230;42.602;23.470;2022-10-15T11:39:21;6.80;;;4.30;;
11052;SDS011;55230;42.602;23.470;2022-10-15T11:42:03;4.47;;;3.53;;
11052;SDS011;55230;42.602;23.470;2022-10-15T11:44:44;4.70;;;4.00;;
11052;SDS011;55230;42.602;23.470;2022-10-15T11:47:26;6.03;;;5.27;;
11052;SDS011;55230;42.602;23.470;2022-10-15T11:50:03;10.87;;;7.97;;
11052;SDS011;55230;42.602;23.470;2022-10-15T11:52:43;5.40;;;4.00;;
11052;SDS011;55230;42.602;23.470;2022-10-15T11:55:22;7.07;;;5.30;;
11052;SDS011;55230;42.602;23.470;2022-10-15T11:57:56;6.20;;;4.50;;
11052;SDS011;55230;42.602;23.470;2022-10-15T12:00:29;13.57;;;8.97;;
11052;SDS011;55230;42.602;23.470;2022-10-15T12:03:00;16.73;;;8.77;;
11052;SDS011;55230;42.602;23.470;2022-10-15T12:05:31;14.50;;;9.03;;
11052;SDS011;55230;42.602;23.470;2022-10-15T12:08:02;7.87;;;5.40;;
11052;SDS011;55230;42.602;23.470;2022-10-15T12:10:38;4.27;;;3.43;;
11052;SDS011;55230;42.602;23.470;2022-10-15T12:13:17;6.57;;;4.83;;
11052;SDS011;55230;42.602;23.470;2022-10-15T12:18:26;5.00;;;4.50;;
11052;SDS011;55230;42.602;23.470;2022-10-15T12:21:00;5.37;;;4.10;;
11052;SDS011;55230;42.602;23.470;2022-10-15T12:23:38;8.13;;;5.03;;
11052;SDS011;55230;42.602;23.470;2022-10-15T12:26:24;6.33;;;3.73;;
11052;SDS011;55230;42.602;23.470;2022-10-15T12:28:54;5.13;;;3.80;;
11052;SDS011;55230;42.602;23.470;2022-10-15T12:31:22;4.93;;;3.60;;
11052;SDS011;55230;42.602;23.470;2022-10-15T12:33:50;4.73;;;4.33;;
11052;SDS011;55230;42.602;23.470;2022-10-15T12:36:20;3.93;;;3.40;;
11052;SDS011;55230;42.602;23.470;2022-10-15T12:38:54;5.57;;;4.10;;
11052;SDS011;55230;42.602;23.470;2022-10-15T12:41:32;4.50;;;3.30;;
11052;SDS011;55230;42.602;23.470;2022-10-15T12:44:05;5.23;;;4.10;;
11052;SDS011;55230;42.602;23.470;2022-10-15T12:46:34;6.10;;;4.00;;
11052;SDS011;55230;42.602;23.470;2022-10-15T12:49:15;8.80;;;3.93;;
11052;SDS011;55230;42.602;23.470;2022-10-15T12:55:19;5.33;;;4.00;;
11052;SDS011;55230;42.602;23.470;2022-10-15T13:01:03;9.57;;;5.00;;
11052;SDS011;55230;42.602;23.470;2022-10-15T13:03:33;6.90;;;4.60;;
11052;SDS011;55230;42.602;23.470;2022-10-15T13:06:12;6.07;;;3.90;;
11052;SDS011;55230;42.602;23.470;2022-10-15T13:08:52;5.23;;;4.23;;
11052;SDS011;55230;42.602;23.470;2022-10-15T13:11:23;4.73;;;3.73;;
11052;SDS011;55230;42.602;23.470;2022-10-15T13:13:57;3.77;;;3.37;;
11052;SDS011;55230;42.602;23.470;2022-10-15T13:16:26;4.97;;;3.60;;
11052;SDS011;55230;42.602;23.470;2022-10-15T13:18:54;4.43;;;4.00;;
11052;SDS011;55230;42.602;23.470;2022-10-15T13:21:23;5.00;;;4.27;;
11052;SDS011;55230;42.602;23.470;2022-10-15T13:24:15;7.20;;;4.73;;
11052;SDS011;55230;42.602;23.470;2022-10-15T13:26:44;6.30;;;4.10;;
11052;SDS011;55230;42.602;23.470;2022-10-15T13:29:13;5.93;;;4.03;;
11052;SDS011;55230;42.602;23.470;2022-10-15T13:31:41;5.27;;;3.50;;
11052;SDS011;55230;42.602;23.470;2022-10-15T13:34:12;5.87;;;4.60;;
11052;SDS011;55230;42.602;23.470;2022-10-15T13:36:44;5.60;;;3.87;;
11052;SDS011;55230;42.602;23.470;2022-10-15T13:39:19;5.70;;;4.90;;
11052;SDS011;55230;42.602;23.470;2022-10-15T13:41:49;5.30;;;3.70;;
11052;SDS011;55230;42.602;23.470;2022-10-15T13:44:21;7.97;;;4.50;;
11052;SDS011;55230;42.602;23.470;2022-10-15T13:46:49;5.30;;;4.10;;
11052;SDS011;55230;42.602;23.470;2022-10-15T13:49:17;6.03;;;5.00;;
11052;SDS011;55230;42.602;23.470;2022-10-15T13:51:44;6.23;;;4.70;;
11052;SDS011;55230;42.602;23.470;2022-10-15T13:54:15;6.37;;;4.63;;
11052;SDS011;55230;42.602;23.470;2022-10-15T13:56:45;5.57;;;3.23;;
11052;SDS011;55230;42.602;23.470;2022-10-15T13:59:17;3.27;;;2.97;;
11052;SDS011;55230;42.602;23.470;2022-10-15T14:01:47;5.43;;;3.60;;
11052;SDS011;55230;42.602;23.470;2022-10-15T14:04:18;8.07;;;5.13;;
11052;SDS011;55230;42.602;23.470;2022-10-15T14:06:51;4.33;;;3.67;;
11052;SDS011;55230;42.602;23.470;2022-10-15T14:09:24;9.90;;;6.20;;
11052;SDS011;55230;42.602;23.470;2022-10-15T14:11:55;6.00;;;3.90;;
11052;SDS011;55230;42.602;23.470;2022-10-15T14:14:26;7.90;;;5.97;;
11052;SDS011;55230;42.602;23.470;2022-10-15T14:16:56;9.73;;;6.10;;
11052;SDS011;55230;42.602;23.470;2022-10-15T14:19:24;13.83;;;8.70;;
11052;SDS011;55230;42.602;23.470;2022-10-15T14:21:54;6.63;;;4.50;;
11052;SDS011;55230;42.602;23.470;2022-10-15T14:24:22;7.57;;;4.93;;
11052;SDS011;55230;42.602;23.470;2022-10-15T14:26:59;16.30;;;8.73;;
11052;SDS011;55230;42.602;23.470;2022-10-15T14:29:28;10.30;;;6.47;;
11052;SDS011;55230;42.602;23.470;2022-10-15T14:32:02;8.40;;;6.70;;
11052;SDS011;55230;42.602;23.470;2022-10-15T14:34:44;14.07;;;9.80;;
11052;SDS011;55230;42.602;23.470;2022-10-15T14:37:27;12.53;;;9.23;;
11052;SDS011;55230;42.602;23.470;2022-10-15T14:40:01;8.47;;;6.10;;
11052;SDS011;55230;42.602;23.470;2022-10-15T14:42:30;10.40;;;6.80;;
11052;SDS011;55230;42.602;23.470;2022-10-15T14:45:08;9.83;;;5.40;;
11052;SDS011;55230;42.602;23.470;2022-10-15T14:47:38;6.00;;;5.23;;
11052;SDS011;55230;42.602;23.470;2022-10-15T14:50:08;4.93;;;3.80;;
11052;SDS011;55230;42.602;23.470;2022-10-15T14:52:36;4.83;;;4.33;;
11052;SDS011;55230;42.602;23.470;2022-10-15T14:55:12;7.07;;;4.70;;
11052;SDS011;55230;42.602;23.470;2022-10-15T14:57:43;6.47;;;5.27;;
11052;SDS011;55230;42.602;23.470;2022-10-15T15:00:13;7.70;;;6.40;;
11052;SDS011;55230;42.602;23.470;2022-10-15T15:02:52;8.80;;;6.20;;
11052;SDS011;55230;42.602;23.470;2022-10-15T15:05:22;11.83;;;8.20;;